Meteo Giornale » Osservazioni meteo Italia » Capo Bellavista

ore: 03:55 - Osservazioni Meteo Capo Bellavista
Lat. 39° 56' N Lon. 9° 43' E Alt. 138 metri s.l.m.

sereno Europe/Rome

24 °C

Sereno

Temp. 24 Ore

24 °C

27 °C

Ovest/Sud-Ovest

20.3 Km/h

Dew point 21 °C

Umidità 83 %

Visibilità  10 Km

Il sole sorge alle ore 06:13

Il sole tramonta alle ore 20:41

Data e Ora Cielo e Fenomeni T °C DP °C Um. % Pres. hPa Vis. km Vento km/h
Oggi h: 03:55 sereno Sereno 24 21 83 1014 10 O/SO 20.3
Oggi h: 02:55 sereno Sereno 24 20 78 1014 10 SO 24
Oggi h: 01:55 sereno Sereno 24 21 83 1014 10 O/SO 20.3
Oggi h: 00:55 sereno Sereno 25 22 83 1014 10 S/SO 25.9
Ieri h: 23:55 sereno Sereno 25 21 78 1014 10 O/SO 24
Ieri h: 22:55 sereno Sereno 25 22 83 1014 10 SO 22.2
Ieri h: 21:55 sereno Sereno 24 21 83 1014 10 S/SO 29.6
Ieri h: 20:55 sereno Sereno 24 22 88 1012 10 S/SO 29.6
Ieri h: 19:55 sereno Sereno 25 22 83 1012 10 O/SO 13
Ieri h: 18:55 sereno Sereno 24 22 88 1013 10 S/SO 22.2
Ieri h: 17:55 sereno Sereno 26 24 88 1013 10 S/SO 27.8
Ieri h: 16:55 sereno Sereno 26 23 83 1013 10 S/SO 14.8
Ieri h: 15:55 sereno Sereno 27 24 83 1013 10 S/SO 7.4
Ieri h: 14:55 sereno Sereno 27 24 83 1013 10 N 5.5
Ieri h: 13:55 sereno Sereno 27 23 78 1013 10 S/SE 16.7
Ieri h: 12:55 sereno Sereno 27 22 74 1013 10 N 5.5
Ieri h: 11:55 poco_nuvoloso Poco Nuvoloso 25 22 83 1012 10 S/SO 7.4
Ieri h: 10:55 nuvoloso_temporali Temporale con Pioggia Debole 25 23 88 1012 10 E/NE 13
Ieri h: 10:34 coperto_temporali Temporale 26 23 83 1011 10 E 22.2
Ieri h: 09:55 sereno Sereno 26 21 73 1011 10 E 31.5
Ieri h: 08:55 nuvoloso Nuvoloso 27 22 74 1011 10 E 22.2
Ieri h: 07:55 nuvoloso Nuvoloso 26 19 65 1011 10 O/NO 9.3
Ieri h: 06:55 nuvoloso Nuvoloso 25 17 61 1011 10 O 16.7
Ieri h: 05:55 nuvoloso Nuvoloso 25 21 78 1010 10 O/NO 22.2